createdAt,value
2019-03-11T00:02:25.383Z,68.83
2019-03-11T00:04:55.335Z,70.83
2019-03-11T00:07:25.779Z,69.84
2019-03-11T00:09:55.714Z,69.88
2019-03-11T00:12:25.690Z,70.07
2019-03-11T00:14:55.704Z,69.67
2019-03-11T00:17:26.474Z,72.23
2019-03-11T00:19:56.604Z,70.25
2019-03-11T00:22:26.558Z,70.06
2019-03-11T00:24:56.438Z,69.94
2019-03-11T00:27:26.589Z,69.95
2019-03-11T00:29:56.542Z,69.51
2019-03-11T00:32:26.530Z,69.66
2019-03-11T00:34:56.681Z,69.76
2019-03-11T00:37:26.833Z,70.14
2019-03-11T00:39:56.796Z,70.52
2019-03-11T00:42:26.936Z,69.04
2019-03-11T00:44:56.835Z,69.09
2019-03-11T00:47:26.734Z,69.19
2019-03-11T00:49:56.832Z,72.01
2019-03-11T00:52:26.783Z,69.71
2019-03-11T00:54:56.706Z,70.80
2019-03-11T00:57:26.620Z,69.81
2019-03-11T00:59:56.550Z,70.55
2019-03-11T01:02:26.751Z,69.05
2019-03-11T01:04:57.274Z,69.82
2019-03-11T01:07:27.177Z,67.96
2019-03-11T01:09:57.458Z,68.61
2019-03-11T01:12:27.354Z,69.40
2019-03-11T01:14:57.397Z,68.42
2019-03-11T01:17:27.583Z,68.43
2019-03-11T01:19:57.595Z,72.30
2019-03-11T01:22:27.860Z,70.55
2019-03-11T01:24:58.380Z,69.33
2019-03-11T01:27:28.709Z,68.26
2019-03-11T01:29:58.624Z,70.56
2019-03-11T01:32:28.713Z,68.61
2019-03-11T01:34:58.875Z,70.14
2019-03-11T01:37:28.758Z,70.26
2019-03-11T01:39:58.928Z,67.60
2019-03-11T01:42:28.818Z,69.74
2019-03-11T01:44:58.731Z,69.49
2019-03-11T01:47:28.612Z,71.25
2019-03-11T01:49:58.750Z,70.67
2019-03-11T01:52:28.879Z,70.89
2019-03-11T01:54:59.216Z,69.58
2019-03-11T01:57:29.563Z,73.25
2019-03-11T01:59:59.681Z,68.92
2019-03-11T02:02:29.582Z,68.52
2019-03-11T02:05:00.122Z,68.22
2019-03-11T02:07:30.511Z,67.22
2019-03-11T02:10:00.753Z,69.70
2019-03-11T02:12:30.672Z,67.99
2019-03-11T02:15:01.098Z,67.18
2019-03-11T02:17:31.567Z,66.89
2019-03-11T02:20:01.717Z,71.80
2019-03-11T02:22:31.622Z,69.44
2019-03-11T02:25:01.507Z,67.51
2019-03-11T02:27:31.427Z,68.60
2019-03-11T02:30:01.837Z,66.78
2019-03-11T02:32:31.967Z,71.51
2019-03-11T02:35:02.078Z,68.33
2019-03-11T02:37:32.193Z,67.78
2019-03-11T02:40:02.106Z,67.27
2019-03-11T02:42:32.432Z,66.99
2019-03-11T02:45:02.555Z,66.61
2019-03-11T02:47:32.444Z,68.94
2019-03-11T02:50:02.354Z,69.95
2019-03-11T02:52:32.242Z,67.37
2019-03-11T02:55:02.219Z,67.50
2019-03-11T02:57:32.381Z,67.95
2019-03-11T03:00:02.303Z,68.67
2019-03-11T03:02:41.254Z,68.33
2019-03-11T03:05:33.649Z,74.46
2019-03-11T03:08:03.592Z,70.80
2019-03-11T03:10:33.823Z,71.93
2019-03-11T03:13:03.728Z,71.39
2019-03-11T03:15:33.647Z,69.30
2019-03-11T03:18:03.622Z,67.83
2019-03-11T03:20:33.647Z,70.70
2019-03-11T03:23:03.580Z,70.00
2019-03-11T03:25:35.075Z,68.66
2019-03-11T03:28:05.327Z,69.20
2019-03-11T03:30:35.791Z,68.25
2019-03-11T03:33:05.794Z,68.75
2019-03-11T03:35:35.727Z,68.58
2019-03-11T03:38:05.780Z,69.67
2019-03-11T03:40:36.207Z,71.50
2019-03-11T03:43:06.444Z,69.50
2019-03-11T03:45:42.283Z,68.67
2019-03-11T03:48:14.158Z,69.52
2019-03-11T03:50:44.050Z,69.38
2019-03-11T03:53:13.970Z,69.34
2019-03-11T03:55:43.967Z,71.40
2019-03-11T03:58:13.937Z,71.94
2019-03-11T04:00:43.920Z,69.50
2019-03-11T04:03:13.952Z,73.13
2019-03-11T04:05:43.973Z,71.13
2019-03-11T04:08:14.474Z,69.60
2019-03-11T04:10:44.766Z,72.08
2019-03-11T04:13:15.020Z,72.53
2019-03-11T04:15:44.968Z,71.13
2019-03-11T04:18:15.087Z,69.43
2019-03-11T04:20:45.402Z,72.79
2019-03-11T04:23:15.564Z,72.00
2019-03-11T04:25:45.917Z,71.14
2019-03-11T04:28:15.993Z,74.61
2019-03-11T04:30:46.155Z,72.79
2019-03-11T04:33:16.048Z,72.18
2019-03-11T04:35:46.220Z,71.11
2019-03-11T04:38:16.323Z,70.66
2019-03-11T04:40:46.313Z,71.51
2019-03-11T04:43:16.226Z,71.29
2019-03-11T04:45:46.418Z,69.75
2019-03-11T04:48:16.340Z,69.95
2019-03-11T04:50:46.268Z,75.44
2019-03-11T04:53:16.166Z,73.61
2019-03-11T04:55:46.225Z,71.96
2019-03-11T04:58:16.228Z,70.04
2019-03-11T05:00:46.242Z,71.08
2019-03-11T05:03:16.283Z,72.59
2019-03-11T05:05:46.236Z,71.74
2019-03-11T05:08:16.382Z,71.88
2019-03-11T05:10:46.359Z,73.78
2019-03-11T05:13:16.297Z,70.48
2019-03-11T05:15:46.460Z,70.74
2019-03-11T05:18:16.434Z,69.74
2019-03-11T05:20:46.369Z,73.04
2019-03-11T05:23:16.303Z,71.59
2019-03-11T05:25:46.744Z,71.84
2019-03-11T05:28:16.744Z,71.46
2019-03-11T05:30:46.615Z,71.52
2019-03-11T05:33:16.748Z,70.66
2019-03-11T05:35:47.182Z,71.44
2019-03-11T05:38:17.340Z,71.00
2019-03-11T05:40:47.528Z,70.27
2019-03-11T05:43:17.456Z,70.76
2019-03-11T05:45:47.603Z,68.62
2019-03-11T05:48:17.527Z,69.30
2019-03-11T05:50:47.475Z,68.70
2019-03-11T05:53:17.394Z,68.24
2019-03-11T05:55:47.495Z,68.04
2019-03-11T05:58:17.902Z,68.46
2019-03-11T06:00:47.775Z,67.19
2019-03-11T06:03:17.902Z,67.20
2019-03-11T06:05:51.082Z,68.30
2019-03-11T06:08:23.490Z,69.59
2019-03-11T06:10:53.474Z,68.01
2019-03-11T06:13:35.346Z,67.72
2019-03-11T06:15:56.213Z,68.36
2019-03-11T06:18:44.843Z,69.38
2019-03-11T06:21:36.691Z,68.46
2019-03-11T06:24:06.679Z,68.07
2019-03-11T06:26:36.628Z,69.36
2019-03-11T06:29:06.857Z,68.11
2019-03-11T06:31:36.793Z,67.67
2019-03-11T06:34:06.898Z,65.56
2019-03-11T06:36:36.925Z,68.74
2019-03-11T06:39:08.841Z,70.25
2019-03-11T06:41:38.754Z,65.75
2019-03-11T06:44:08.696Z,65.60
2019-03-11T06:46:38.715Z,63.83
2019-03-11T06:49:08.681Z,64.57
2019-03-11T06:51:38.908Z,66.52
2019-03-11T06:54:09.145Z,66.45
2019-03-11T06:56:39.574Z,64.26
2019-03-11T06:59:09.538Z,64.37
2019-03-11T07:01:39.459Z,64.61
2019-03-11T07:04:09.589Z,63.19
2019-03-11T07:09:19.701Z,65.49
2019-03-11T07:11:49.664Z,68.61
2019-03-11T07:14:19.636Z,64.89
2019-03-11T07:16:50.077Z,64.01
2019-03-11T07:19:20.484Z,64.15
2019-03-11T07:21:51.012Z,63.87
2019-03-11T07:24:21.394Z,63.60
2019-03-11T07:26:51.372Z,63.34
2019-03-11T07:29:21.584Z,63.36
2019-03-11T07:31:51.906Z,64.54
2019-03-11T07:34:22.179Z,62.40
2019-03-11T07:36:52.098Z,62.75
2019-03-11T07:39:22.176Z,64.17
2019-03-11T07:41:52.304Z,62.98
2019-03-11T07:44:22.794Z,65.81
2019-03-11T07:46:52.725Z,63.20
2019-03-11T07:49:22.827Z,62.36
2019-03-11T07:51:52.749Z,67.01
2019-03-11T07:54:23.356Z,66.28
2019-03-11T07:56:53.661Z,64.59
2019-03-11T07:59:23.570Z,63.15
2019-03-11T08:01:53.478Z,62.74
2019-03-11T08:04:23.489Z,63.95
2019-03-11T08:06:53.793Z,69.43
2019-03-11T08:09:23.825Z,66.76
2019-03-11T08:11:53.849Z,64.77
2019-03-11T08:14:24.172Z,63.21
2019-03-11T08:16:54.483Z,63.39
2019-03-11T08:19:24.397Z,62.42
2019-03-11T08:21:54.313Z,62.82
2019-03-11T08:24:24.627Z,63.32
2019-03-11T08:26:54.962Z,63.07
2019-03-11T08:29:24.888Z,61.69
2019-03-11T08:31:57.647Z,63.10
2019-03-11T08:34:27.991Z,62.18
2019-03-11T08:36:58.152Z,62.32
2019-03-11T08:39:28.434Z,62.78
2019-03-11T08:41:58.396Z,62.41
2019-03-11T08:44:28.400Z,61.67
2019-03-11T08:46:58.658Z,63.35
2019-03-11T08:49:28.733Z,64.57
2019-03-11T08:51:58.919Z,61.99
2019-03-11T08:54:28.850Z,61.90
2019-03-11T08:56:58.805Z,62.05
2019-03-11T08:59:28.770Z,62.54
2019-03-11T09:01:58.680Z,61.51
2019-03-11T09:04:28.693Z,60.92
2019-03-11T09:06:58.732Z,60.88
2019-03-11T09:09:28.652Z,60.77
2019-03-11T09:11:59.133Z,60.20
2019-03-11T09:14:29.145Z,59.90
2019-03-11T09:16:59.250Z,60.59
2019-03-11T09:19:29.395Z,60.68
2019-03-11T09:22:01.964Z,60.44
2019-03-11T09:24:32.102Z,60.29
2019-03-11T09:27:02.165Z,59.65
2019-03-11T09:29:32.157Z,60.04
2019-03-11T09:32:02.101Z,59.62
2019-03-11T09:34:32.074Z,59.73
2019-03-11T09:37:02.087Z,59.26
2019-03-11T09:39:32.153Z,59.05
2019-03-11T09:42:02.112Z,57.79
2019-03-11T09:44:32.021Z,58.11
2019-03-11T09:47:02.297Z,58.19
2019-03-11T09:49:32.237Z,59.33
2019-03-11T09:52:03.009Z,59.07
2019-03-11T09:54:33.017Z,59.22
2019-03-11T09:57:03.440Z,58.50
2019-03-11T09:59:33.664Z,56.87
2019-03-11T10:02:03.772Z,58.28
2019-03-11T10:04:33.831Z,62.74
2019-03-11T10:07:04.187Z,59.00
2019-03-11T10:09:34.329Z,59.19
2019-03-11T10:12:04.262Z,58.34
2019-03-11T10:14:34.370Z,60.43
2019-03-11T10:17:04.464Z,60.24
2019-03-11T10:19:35.080Z,64.16
2019-03-11T10:22:05.099Z,61.30
2019-03-11T10:24:35.021Z,60.47
2019-03-11T10:27:05.196Z,61.26
2019-03-11T10:29:35.262Z,61.83
2019-03-11T10:32:05.442Z,61.42
2019-03-11T10:34:35.727Z,59.46
2019-03-11T10:37:05.759Z,59.23
2019-03-11T10:39:35.918Z,59.78
2019-03-11T10:42:06.253Z,60.29
2019-03-11T10:44:36.156Z,58.65
2019-03-11T10:47:06.336Z,61.83
2019-03-11T10:49:36.265Z,60.70
2019-03-11T10:52:07.490Z,59.33
2019-03-11T10:54:37.566Z,64.15
2019-03-11T10:57:07.713Z,60.68
2019-03-11T10:59:37.996Z,60.54
2019-03-11T11:02:08.154Z,60.09
2019-03-11T11:04:38.268Z,65.63
2019-03-11T11:07:08.354Z,66.06
2019-03-11T11:09:38.490Z,64.18
2019-03-11T11:12:08.434Z,65.96
2019-03-11T11:14:38.763Z,64.93
2019-03-11T11:17:09.029Z,64.31
2019-03-11T11:19:38.949Z,67.78
2019-03-11T11:22:08.949Z,65.76
2019-03-11T11:24:38.855Z,63.69
2019-03-11T11:27:09.052Z,66.95
2019-03-11T11:29:38.970Z,66.89
2019-03-11T11:32:09.141Z,65.09
2019-03-11T11:34:39.047Z,65.64
2019-03-11T11:37:09.030Z,67.13
2019-03-11T11:39:38.955Z,67.63
2019-03-11T11:42:09.175Z,67.26
2019-03-11T11:44:39.381Z,68.33
2019-03-11T11:47:09.331Z,68.95
2019-03-11T11:49:39.244Z,67.95
2019-03-11T11:52:09.170Z,68.23
2019-03-11T11:54:39.082Z,67.44
2019-03-11T11:57:09.044Z,65.84
2019-03-11T11:59:38.963Z,65.52
2019-03-11T12:02:08.956Z,66.00
2019-03-11T12:04:38.975Z,67.89
2019-03-11T12:07:08.946Z,66.70
2019-03-11T12:09:39.414Z,67.92
2019-03-11T12:12:09.322Z,68.15
2019-03-11T12:14:39.309Z,66.35
2019-03-11T12:17:09.371Z,65.61
2019-03-11T12:19:39.381Z,66.89
2019-03-11T12:22:09.576Z,66.46
2019-03-11T12:24:39.800Z,65.49
2019-03-11T12:27:10.007Z,68.44
2019-03-11T12:29:39.970Z,68.17
2019-03-11T12:32:10.270Z,66.34
2019-03-11T12:34:40.257Z,65.36
2019-03-11T12:37:10.223Z,65.01
2019-03-11T12:39:40.228Z,65.80
2019-03-11T12:42:10.240Z,67.53
2019-03-11T12:44:40.201Z,67.05
2019-03-11T12:47:10.198Z,65.96
2019-03-11T12:49:40.131Z,67.60
2019-03-11T12:52:10.052Z,65.39
2019-03-11T12:54:41.614Z,67.28
2019-03-11T12:57:11.966Z,65.22
2019-03-11T12:59:42.264Z,64.89
2019-03-11T13:02:12.231Z,66.39
2019-03-11T13:04:42.182Z,65.74
2019-03-11T13:07:12.167Z,65.22
2019-03-11T13:09:42.208Z,64.75
2019-03-11T13:12:12.187Z,63.97
2019-03-11T13:14:42.171Z,62.29
2019-03-11T13:17:12.215Z,61.88
2019-03-11T13:19:42.228Z,62.61
2019-03-11T13:22:12.177Z,62.84
2019-03-11T13:24:42.345Z,63.97
2019-03-11T13:27:12.555Z,66.87
2019-03-11T13:29:42.824Z,63.82
2019-03-11T13:32:13.145Z,63.99
2019-03-11T13:34:44.778Z,63.83
2019-03-11T13:37:15.256Z,64.66
2019-03-11T13:39:45.563Z,64.56
2019-03-11T13:42:15.483Z,64.83
2019-03-11T13:44:45.572Z,63.72
2019-03-11T13:47:15.547Z,64.24
2019-03-11T13:49:46.311Z,63.22
2019-03-11T13:52:16.601Z,63.29
2019-03-11T13:54:46.495Z,61.94
2019-03-11T13:57:16.656Z,62.82
2019-03-11T13:59:46.707Z,62.50
2019-03-11T14:02:16.822Z,61.45
2019-03-11T14:04:49.390Z,61.59
2019-03-11T14:07:19.456Z,61.55
2019-03-11T14:09:49.503Z,63.36
2019-03-11T14:12:19.905Z,62.97
2019-03-11T14:14:51.688Z,61.33
2019-03-11T14:17:22.092Z,62.75
2019-03-11T14:19:52.108Z,62.52
2019-03-11T14:22:22.081Z,61.51
2019-03-11T14:24:52.069Z,60.68
2019-03-11T14:27:21.986Z,61.17
2019-03-11T14:29:51.967Z,61.40
2019-03-11T14:32:23.144Z,62.28
2019-03-11T14:34:53.445Z,61.49
2019-03-11T14:37:23.632Z,60.09
2019-03-11T14:39:53.587Z,60.75
2019-03-11T14:42:23.709Z,60.86
2019-03-11T14:44:53.685Z,60.94
2019-03-11T14:47:23.979Z,61.13
2019-03-11T14:49:53.919Z,60.74
2019-03-11T14:52:23.938Z,59.83
2019-03-11T14:54:53.865Z,59.09
2019-03-11T14:57:23.920Z,59.88
2019-03-11T14:59:54.348Z,61.00
2019-03-11T15:02:24.553Z,59.76
2019-03-11T15:04:54.533Z,59.47
2019-03-11T15:07:24.485Z,59.96
2019-03-11T15:09:54.633Z,59.41
2019-03-11T15:12:25.009Z,58.85
2019-03-11T15:14:55.123Z,59.57
2019-03-11T15:17:25.188Z,58.15
2019-03-11T15:19:55.550Z,60.25
2019-03-11T15:22:25.584Z,60.61
2019-03-11T15:24:55.737Z,60.63
2019-03-11T15:27:34.957Z,59.54
2019-03-11T15:30:06.868Z,59.89
2019-03-11T15:32:36.913Z,60.06
2019-03-11T15:35:08.483Z,60.03
2019-03-11T15:37:38.953Z,59.95
2019-03-11T15:40:10.777Z,59.41
2019-03-11T15:42:40.664Z,59.82
2019-03-11T15:45:13.224Z,60.28
2019-03-11T15:47:43.379Z,60.82
2019-03-11T15:50:20.415Z,59.99
2019-03-11T15:52:50.715Z,59.54
2019-03-11T15:55:20.725Z,61.38
2019-03-11T15:57:50.772Z,61.06
2019-03-11T16:00:25.169Z,61.19
2019-03-11T16:02:56.226Z,61.46
2019-03-11T16:05:26.328Z,60.66
2019-03-11T16:07:56.473Z,61.07
2019-03-11T16:10:26.753Z,62.20
2019-03-11T16:12:56.770Z,61.88
2019-03-11T16:15:26.822Z,61.10
2019-03-11T16:17:56.995Z,61.12
2019-03-11T16:20:27.114Z,60.82
2019-03-11T16:22:57.243Z,60.72
2019-03-11T16:25:27.429Z,61.62
2019-03-11T16:27:57.649Z,59.80
2019-03-11T16:30:28.007Z,60.76
2019-03-11T16:33:00.747Z,60.04
2019-03-11T16:35:29.961Z,61.89
2019-03-11T16:37:59.889Z,61.37
2019-03-11T16:40:29.946Z,61.20
2019-03-11T16:43:00.029Z,63.00
2019-03-11T16:45:30.194Z,62.65
2019-03-11T16:48:00.226Z,62.25
2019-03-11T16:50:30.267Z,61.90
2019-03-11T16:53:00.329Z,61.58
2019-03-11T16:55:33.123Z,61.43
2019-03-11T16:58:03.363Z,61.93
2019-03-11T17:00:39.279Z,61.15
2019-03-11T17:03:12.763Z,60.76
2019-03-11T17:05:42.709Z,60.54
2019-03-11T17:08:12.937Z,60.29
2019-03-11T17:10:42.993Z,59.32
2019-03-11T17:13:12.970Z,59.85
2019-03-11T17:15:42.878Z,60.92
2019-03-11T17:18:12.862Z,60.16
2019-03-11T17:20:42.972Z,59.60
2019-03-11T17:23:13.042Z,59.42
2019-03-11T17:25:43.196Z,59.52
2019-03-11T17:28:13.264Z,59.71
2019-03-11T17:30:43.224Z,60.09
2019-03-11T17:33:13.319Z,59.55
2019-03-11T17:35:43.313Z,58.86
2019-03-11T17:38:13.373Z,60.65
2019-03-11T17:40:43.423Z,63.22
2019-03-11T17:43:13.470Z,65.93
2019-03-11T17:45:43.711Z,68.37
2019-03-11T17:48:13.611Z,68.03
2019-03-11T17:50:43.618Z,68.48
2019-03-11T17:53:19.827Z,67.73
2019-03-11T17:55:45.477Z,67.55
2019-03-11T17:58:15.613Z,66.96
2019-03-11T18:00:55.045Z,66.71
2019-03-11T18:03:17.772Z,67.55
2019-03-11T18:05:47.754Z,67.28
2019-03-11T18:08:17.672Z,67.08
2019-03-11T18:10:47.676Z,67.73
2019-03-11T18:13:18.116Z,67.16
2019-03-11T18:15:48.095Z,67.67
2019-03-11T18:18:18.133Z,70.47
2019-03-11T18:20:48.109Z,73.05
2019-03-11T18:23:18.095Z,73.06
2019-03-11T18:25:48.078Z,74.37
2019-03-11T18:28:17.997Z,76.12
2019-03-11T18:30:48.002Z,76.33
2019-03-11T18:33:17.959Z,75.02
2019-03-11T18:35:48.235Z,72.97
2019-03-11T18:38:18.224Z,73.46
2019-03-11T18:40:48.440Z,74.26
2019-03-11T18:43:21.064Z,75.46
2019-03-11T18:45:53.008Z,75.76
2019-03-11T18:48:22.909Z,77.35
2019-03-11T18:50:52.910Z,76.78
2019-03-11T18:53:22.930Z,76.30
2019-03-11T18:55:52.787Z,75.68
2019-03-11T18:58:22.956Z,75.53
2019-03-11T19:00:52.985Z,75.88
2019-03-11T19:03:22.906Z,75.59
2019-03-11T19:05:53.216Z,74.94
2019-03-11T19:08:23.322Z,72.71
2019-03-11T19:10:53.302Z,71.81
2019-03-11T19:13:23.280Z,72.15
2019-03-11T19:15:53.198Z,73.16
2019-03-11T19:18:23.377Z,71.92
2019-03-11T19:20:53.308Z,72.11
2019-03-11T19:23:23.466Z,71.67
2019-03-11T19:25:53.975Z,71.38
2019-03-11T19:28:23.901Z,71.06
2019-03-11T19:30:56.571Z,71.63
2019-03-11T19:33:25.850Z,70.52
2019-03-11T19:35:56.088Z,71.09
2019-03-11T19:38:29.498Z,72.48
2019-03-11T19:40:59.819Z,73.42
2019-03-11T19:43:38.072Z,73.93
2019-03-11T19:46:07.980Z,74.80
2019-03-11T19:48:38.021Z,74.42
2019-03-11T19:51:08.189Z,73.98
2019-03-11T19:53:38.128Z,74.86
2019-03-11T19:56:08.388Z,73.88
2019-03-11T19:58:38.518Z,75.35
2019-03-11T20:01:08.568Z,74.76
2019-03-11T20:03:38.565Z,73.71
2019-03-11T20:06:08.869Z,74.60
2019-03-11T20:08:38.833Z,75.02
2019-03-11T20:11:08.904Z,73.79
2019-03-11T20:13:39.180Z,73.61
2019-03-11T20:16:09.310Z,73.69
2019-03-11T20:18:39.265Z,74.30
2019-03-11T20:21:09.612Z,74.40
2019-03-11T20:23:39.572Z,74.54
2019-03-11T20:26:09.767Z,75.78
2019-03-11T20:28:40.004Z,74.54
2019-03-11T20:31:09.958Z,74.78
2019-03-11T20:33:40.319Z,74.29
2019-03-11T20:36:20.073Z,74.54
2019-03-11T20:38:42.938Z,74.58
2019-03-11T20:41:13.380Z,74.16
2019-03-11T20:43:43.516Z,73.37
2019-03-11T20:46:16.904Z,73.17
2019-03-11T20:48:47.656Z,73.31
2019-03-11T20:51:17.904Z,73.38
2019-03-11T20:53:48.243Z,72.30
2019-03-11T20:56:18.455Z,72.97
2019-03-11T20:58:48.415Z,73.71
2019-03-11T21:01:18.488Z,73.11
2019-03-11T21:03:48.437Z,73.60
2019-03-11T21:06:18.702Z,74.06
2019-03-11T21:08:48.917Z,73.26
2019-03-11T21:11:19.049Z,73.57
2019-03-11T21:13:49.008Z,73.00
2019-03-11T21:16:18.933Z,73.14
2019-03-11T21:18:49.099Z,73.41
2019-03-11T21:21:19.323Z,73.37
2019-03-11T21:24:01.243Z,72.47
2019-03-11T21:26:20.922Z,73.26
2019-03-11T21:28:50.892Z,73.81
2019-03-11T21:31:20.891Z,73.33
2019-03-11T21:33:58.237Z,74.12
2019-03-11T21:36:23.065Z,75.12
2019-03-11T21:38:53.212Z,74.00
2019-03-11T21:41:23.340Z,73.54
2019-03-11T21:43:53.374Z,73.60
2019-03-11T21:46:23.326Z,73.46
2019-03-11T21:48:53.428Z,73.37
2019-03-11T21:51:23.611Z,73.04
2019-03-11T21:53:53.571Z,73.44
2019-03-11T21:56:23.799Z,74.14
2019-03-11T21:58:54.316Z,74.63
2019-03-11T22:01:25.033Z,75.16
2019-03-11T22:03:55.220Z,75.78
2019-03-11T22:06:25.247Z,76.40
2019-03-11T22:08:55.224Z,76.24
2019-03-11T22:11:25.564Z,76.12
2019-03-11T22:13:55.553Z,75.96
2019-03-11T22:16:25.864Z,76.56
2019-03-11T22:18:58.081Z,76.49
2019-03-11T22:21:28.214Z,76.75
2019-03-11T22:23:58.260Z,76.35
2019-03-11T22:26:28.684Z,75.47
2019-03-11T22:28:58.900Z,76.09
2019-03-11T22:31:28.887Z,76.66
2019-03-11T22:33:58.868Z,77.22
2019-03-11T22:36:29.110Z,76.47
2019-03-11T22:38:59.184Z,76.75
2019-03-11T22:41:29.145Z,77.34
2019-03-11T22:43:59.097Z,76.77
2019-03-11T22:46:29.535Z,77.07
2019-03-11T22:48:59.436Z,76.79
2019-03-11T22:51:29.379Z,76.46
2019-03-11T22:53:59.815Z,76.28
2019-03-11T22:56:29.834Z,77.31
2019-03-11T22:59:00.136Z,76.97
2019-03-11T23:01:30.332Z,77.46
2019-03-11T23:04:00.212Z,76.90
2019-03-11T23:06:30.202Z,76.83
2019-03-11T23:09:00.229Z,77.25
2019-03-11T23:11:30.621Z,76.74
2019-03-11T23:14:00.775Z,76.39
2019-03-11T23:16:30.986Z,76.19
2019-03-11T23:19:01.060Z,75.80
2019-03-11T23:21:31.276Z,76.58
2019-03-11T23:24:01.518Z,77.92
2019-03-11T23:26:31.492Z,77.69
2019-03-11T23:29:01.638Z,77.62
2019-03-11T23:31:31.549Z,76.88
2019-03-11T23:34:01.486Z,76.24
2019-03-11T23:37:08.187Z,77.86
2019-03-11T23:39:38.543Z,77.57
2019-03-11T23:42:08.698Z,77.45
2019-03-11T23:44:38.639Z,77.11
2019-03-11T23:47:08.626Z,77.62
2019-03-11T23:49:38.553Z,78.28
2019-03-11T23:52:08.528Z,78.16
2019-03-11T23:54:38.814Z,77.67
2019-03-11T23:57:08.686Z,77.01
2019-03-11T23:59:38.592Z,78.03
